sensor_id;sensor_type;location;lat;lon;timestamp;P1;durP1;ratioP1;P2;durP2;ratioP2
81314;SDS011;75773;52.534;5.686;2024-01-30T00:01:13;7.72;;;4.25;;
81314;SDS011;75773;52.534;5.686;2024-01-30T00:03:42;8.70;;;4.40;;
81314;SDS011;75773;52.534;5.686;2024-01-30T00:06:11;10.30;;;3.92;;
81314;SDS011;75773;52.534;5.686;2024-01-30T00:08:41;7.50;;;4.22;;
81314;SDS011;75773;52.534;5.686;2024-01-30T00:11:14;6.57;;;4.05;;
81314;SDS011;75773;52.534;5.686;2024-01-30T00:13:44;8.77;;;4.60;;
81314;SDS011;75773;52.534;5.686;2024-01-30T00:16:19;9.45;;;4.88;;
81314;SDS011;75773;52.534;5.686;2024-01-30T00:18:49;8.02;;;3.90;;
81314;SDS011;75773;52.534;5.686;2024-01-30T00:21:19;7.85;;;3.88;;
81314;SDS011;75773;52.534;5.686;2024-01-30T00:23:49;6.75;;;4.68;;
81314;SDS011;75773;52.534;5.686;2024-01-30T00:26:21;5.78;;;3.35;;
81314;SDS011;75773;52.534;5.686;2024-01-30T00:28:50;8.60;;;5.10;;
81314;SDS011;75773;52.534;5.686;2024-01-30T00:31:20;8.27;;;3.95;;
81314;SDS011;75773;52.534;5.686;2024-01-30T00:33:49;8.05;;;4.13;;
81314;SDS011;75773;52.534;5.686;2024-01-30T00:36:18;12.43;;;4.93;;
81314;SDS011;75773;52.534;5.686;2024-01-30T00:38:48;9.85;;;4.47;;
81314;SDS011;75773;52.534;5.686;2024-01-30T00:41:17;8.57;;;4.47;;
81314;SDS011;75773;52.534;5.686;2024-01-30T00:43:50;5.30;;;3.40;;
81314;SDS011;75773;52.534;5.686;2024-01-30T00:46:19;8.07;;;3.85;;
81314;SDS011;75773;52.534;5.686;2024-01-30T00:48:49;5.80;;;4.03;;
81314;SDS011;75773;52.534;5.686;2024-01-30T00:51:18;7.72;;;4.30;;
81314;SDS011;75773;52.534;5.686;2024-01-30T00:53:47;9.07;;;4.30;;
81314;SDS011;75773;52.534;5.686;2024-01-30T00:56:19;9.00;;;3.95;;
81314;SDS011;75773;52.534;5.686;2024-01-30T00:58:51;8.02;;;4.28;;
81314;SDS011;75773;52.534;5.686;2024-01-30T01:01:21;9.05;;;4.82;;
81314;SDS011;75773;52.534;5.686;2024-01-30T01:03:50;11.77;;;4.28;;
81314;SDS011;75773;52.534;5.686;2024-01-30T01:06:20;8.43;;;4.03;;
81314;SDS011;75773;52.534;5.686;2024-01-30T01:08:49;9.68;;;4.22;;
81314;SDS011;75773;52.534;5.686;2024-01-30T01:11:24;5.90;;;3.40;;
81314;SDS011;75773;52.534;5.686;2024-01-30T01:13:53;5.25;;;3.75;;
81314;SDS011;75773;52.534;5.686;2024-01-30T01:16:25;10.65;;;4.18;;
81314;SDS011;75773;52.534;5.686;2024-01-30T01:18:54;6.68;;;3.92;;
81314;SDS011;75773;52.534;5.686;2024-01-30T01:21:23;11.27;;;3.42;;
81314;SDS011;75773;52.534;5.686;2024-01-30T01:23:53;5.88;;;3.42;;
81314;SDS011;75773;52.534;5.686;2024-01-30T01:26:25;8.60;;;4.10;;
81314;SDS011;75773;52.534;5.686;2024-01-30T01:28:54;7.30;;;4.32;;
81314;SDS011;75773;52.534;5.686;2024-01-30T01:31:24;10.38;;;4.20;;
81314;SDS011;75773;52.534;5.686;2024-01-30T01:33:55;6.47;;;3.35;;
81314;SDS011;75773;52.534;5.686;2024-01-30T01:36:24;7.20;;;4.38;;
81314;SDS011;75773;52.534;5.686;2024-01-30T01:39:01;7.97;;;4.28;;
81314;SDS011;75773;52.534;5.686;2024-01-30T01:41:34;8.93;;;4.22;;
81314;SDS011;75773;52.534;5.686;2024-01-30T01:44:03;5.00;;;2.97;;
81314;SDS011;75773;52.534;5.686;2024-01-30T01:46:33;6.35;;;4.07;;
81314;SDS011;75773;52.534;5.686;2024-01-30T01:49:05;7.50;;;3.88;;
81314;SDS011;75773;52.534;5.686;2024-01-30T01:51:35;7.20;;;3.90;;
81314;SDS011;75773;52.534;5.686;2024-01-30T01:54:07;5.78;;;3.55;;
81314;SDS011;75773;52.534;5.686;2024-01-30T01:56:43;6.60;;;3.40;;
81314;SDS011;75773;52.534;5.686;2024-01-30T01:59:12;12.40;;;4.38;;
81314;SDS011;75773;52.534;5.686;2024-01-30T02:01:42;8.50;;;3.83;;
81314;SDS011;75773;52.534;5.686;2024-01-30T02:04:14;7.63;;;3.78;;
81314;SDS011;75773;52.534;5.686;2024-01-30T02:06:44;7.70;;;3.65;;
81314;SDS011;75773;52.534;5.686;2024-01-30T02:09:13;5.00;;;3.80;;
81314;SDS011;75773;52.534;5.686;2024-01-30T02:11:45;7.60;;;3.70;;
81314;SDS011;75773;52.534;5.686;2024-01-30T02:14:15;8.55;;;4.28;;
81314;SDS011;75773;52.534;5.686;2024-01-30T02:16:44;8.93;;;3.75;;
81314;SDS011;75773;52.534;5.686;2024-01-30T02:19:13;5.68;;;3.70;;
81314;SDS011;75773;52.534;5.686;2024-01-30T02:21:46;8.30;;;4.40;;
81314;SDS011;75773;52.534;5.686;2024-01-30T02:24:16;5.70;;;3.42;;
81314;SDS011;75773;52.534;5.686;2024-01-30T02:26:45;8.45;;;4.10;;
81314;SDS011;75773;52.534;5.686;2024-01-30T02:29:14;6.93;;;4.03;;
81314;SDS011;75773;52.534;5.686;2024-01-30T02:31:44;6.10;;;3.63;;
81314;SDS011;75773;52.534;5.686;2024-01-30T02:34:16;7.55;;;4.20;;
81314;SDS011;75773;52.534;5.686;2024-01-30T02:36:48;7.38;;;3.97;;
81314;SDS011;75773;52.534;5.686;2024-01-30T02:39:18;6.80;;;4.03;;
81314;SDS011;75773;52.534;5.686;2024-01-30T02:41:47;7.25;;;4.15;;
81314;SDS011;75773;52.534;5.686;2024-01-30T02:44:16;7.25;;;4.15;;
81314;SDS011;75773;52.534;5.686;2024-01-30T02:46:46;5.90;;;3.20;;
81314;SDS011;75773;52.534;5.686;2024-01-30T02:49:15;5.63;;;3.58;;
81314;SDS011;75773;52.534;5.686;2024-01-30T02:51:48;8.13;;;4.30;;
81314;SDS011;75773;52.534;5.686;2024-01-30T02:54:17;7.80;;;3.78;;
81314;SDS011;75773;52.534;5.686;2024-01-30T02:56:46;8.65;;;3.63;;
81314;SDS011;75773;52.534;5.686;2024-01-30T02:59:16;7.10;;;3.55;;
81314;SDS011;75773;52.534;5.686;2024-01-30T03:01:45;7.97;;;3.75;;
81314;SDS011;75773;52.534;5.686;2024-01-30T03:04:15;5.53;;;3.38;;
81314;SDS011;75773;52.534;5.686;2024-01-30T03:06:44;6.20;;;3.08;;
81314;SDS011;75773;52.534;5.686;2024-01-30T03:09:16;7.82;;;3.42;;
81314;SDS011;75773;52.534;5.686;2024-01-30T03:11:46;8.45;;;3.47;;
81314;SDS011;75773;52.534;5.686;2024-01-30T03:14:15;6.60;;;2.97;;
81314;SDS011;75773;52.534;5.686;2024-01-30T03:16:45;5.13;;;2.75;;
81314;SDS011;75773;52.534;5.686;2024-01-30T03:19:14;7.18;;;3.60;;
81314;SDS011;75773;52.534;5.686;2024-01-30T03:21:44;4.80;;;3.25;;
81314;SDS011;75773;52.534;5.686;2024-01-30T03:24:16;6.50;;;3.65;;
81314;SDS011;75773;52.534;5.686;2024-01-30T03:26:45;7.25;;;3.45;;
81314;SDS011;75773;52.534;5.686;2024-01-30T03:29:15;7.85;;;3.92;;
81314;SDS011;75773;52.534;5.686;2024-01-30T03:31:44;6.97;;;3.65;;
81314;SDS011;75773;52.534;5.686;2024-01-30T03:34:19;4.82;;;2.58;;
81314;SDS011;75773;52.534;5.686;2024-01-30T03:36:48;6.35;;;3.42;;
81314;SDS011;75773;52.534;5.686;2024-01-30T03:39:22;8.15;;;3.25;;
81314;SDS011;75773;52.534;5.686;2024-01-30T03:41:52;4.18;;;3.13;;
81314;SDS011;75773;52.534;5.686;2024-01-30T03:44:23;5.97;;;3.10;;
81314;SDS011;75773;52.534;5.686;2024-01-30T03:46:53;6.90;;;2.65;;
81314;SDS011;75773;52.534;5.686;2024-01-30T03:49:30;7.13;;;3.00;;
81314;SDS011;75773;52.534;5.686;2024-01-30T03:52:02;5.90;;;3.80;;
81314;SDS011;75773;52.534;5.686;2024-01-30T03:54:35;3.85;;;2.95;;
81314;SDS011;75773;52.534;5.686;2024-01-30T03:57:04;7.68;;;3.80;;
81314;SDS011;75773;52.534;5.686;2024-01-30T03:59:34;7.85;;;4.05;;
81314;SDS011;75773;52.534;5.686;2024-01-30T04:02:04;6.68;;;4.20;;
81314;SDS011;75773;52.534;5.686;2024-01-30T04:04:33;9.95;;;4.82;;
81314;SDS011;75773;52.534;5.686;2024-01-30T04:07:03;7.50;;;3.63;;
81314;SDS011;75773;52.534;5.686;2024-01-30T04:09:35;9.45;;;4.43;;
81314;SDS011;75773;52.534;5.686;2024-01-30T04:12:05;9.10;;;3.70;;
81314;SDS011;75773;52.534;5.686;2024-01-30T04:14:34;6.75;;;3.55;;
81314;SDS011;75773;52.534;5.686;2024-01-30T04:17:07;10.30;;;4.50;;
81314;SDS011;75773;52.534;5.686;2024-01-30T04:19:37;4.78;;;2.95;;
81314;SDS011;75773;52.534;5.686;2024-01-30T04:22:06;7.10;;;4.28;;
81314;SDS011;75773;52.534;5.686;2024-01-30T04:24:38;8.98;;;3.97;;
81314;SDS011;75773;52.534;5.686;2024-01-30T04:27:08;6.40;;;3.78;;
81314;SDS011;75773;52.534;5.686;2024-01-30T04:29:37;9.13;;;3.95;;
81314;SDS011;75773;52.534;5.686;2024-01-30T04:32:07;8.73;;;4.82;;
81314;SDS011;75773;52.534;5.686;2024-01-30T04:34:35;6.38;;;3.78;;
81314;SDS011;75773;52.534;5.686;2024-01-30T04:37:05;7.70;;;4.45;;
81314;SDS011;75773;52.534;5.686;2024-01-30T04:39:34;11.30;;;3.92;;
81314;SDS011;75773;52.534;5.686;2024-01-30T04:42:06;10.00;;;4.50;;
81314;SDS011;75773;52.534;5.686;2024-01-30T04:44:36;13.57;;;4.00;;
81314;SDS011;75773;52.534;5.686;2024-01-30T04:47:05;7.90;;;4.85;;
81314;SDS011;75773;52.534;5.686;2024-01-30T04:49:37;7.13;;;4.43;;
81314;SDS011;75773;52.534;5.686;2024-01-30T04:52:08;4.65;;;3.63;;
81314;SDS011;75773;52.534;5.686;2024-01-30T04:54:37;7.30;;;4.50;;
81314;SDS011;75773;52.534;5.686;2024-01-30T04:57:12;5.82;;;3.53;;
81314;SDS011;75773;52.534;5.686;2024-01-30T04:59:43;4.88;;;3.22;;
81314;SDS011;75773;52.534;5.686;2024-01-30T05:02:12;11.20;;;3.78;;
81314;SDS011;75773;52.534;5.686;2024-01-30T05:04:43;7.55;;;4.38;;
81314;SDS011;75773;52.534;5.686;2024-01-30T05:07:12;7.90;;;4.50;;
81314;SDS011;75773;52.534;5.686;2024-01-30T05:09:42;6.88;;;4.25;;
81314;SDS011;75773;52.534;5.686;2024-01-30T05:12:14;9.10;;;3.53;;
81314;SDS011;75773;52.534;5.686;2024-01-30T05:14:43;7.15;;;3.75;;
81314;SDS011;75773;52.534;5.686;2024-01-30T05:17:12;7.43;;;4.05;;
81314;SDS011;75773;52.534;5.686;2024-01-30T05:19:43;5.85;;;3.60;;
81314;SDS011;75773;52.534;5.686;2024-01-30T05:22:12;6.47;;;3.72;;
81314;SDS011;75773;52.534;5.686;2024-01-30T05:24:44;6.80;;;3.80;;
81314;SDS011;75773;52.534;5.686;2024-01-30T05:27:16;6.70;;;3.95;;
81314;SDS011;75773;52.534;5.686;2024-01-30T05:29:45;6.10;;;3.33;;
81314;SDS011;75773;52.534;5.686;2024-01-30T05:32:15;8.48;;;3.20;;
81314;SDS011;75773;52.534;5.686;2024-01-30T05:34:44;6.50;;;3.42;;
81314;SDS011;75773;52.534;5.686;2024-01-30T05:37:16;5.72;;;3.38;;
81314;SDS011;75773;52.534;5.686;2024-01-30T05:39:45;6.82;;;2.97;;
81314;SDS011;75773;52.534;5.686;2024-01-30T05:42:17;13.63;;;4.07;;
81314;SDS011;75773;52.534;5.686;2024-01-30T05:44:47;7.47;;;3.55;;
81314;SDS011;75773;52.534;5.686;2024-01-30T05:47:16;9.13;;;3.88;;
81314;SDS011;75773;52.534;5.686;2024-01-30T05:49:45;7.68;;;3.15;;
81314;SDS011;75773;52.534;5.686;2024-01-30T05:52:15;7.68;;;3.63;;
81314;SDS011;75773;52.534;5.686;2024-01-30T05:54:44;5.80;;;2.85;;
81314;SDS011;75773;52.534;5.686;2024-01-30T05:57:14;6.00;;;2.63;;
81314;SDS011;75773;52.534;5.686;2024-01-30T05:59:46;4.82;;;2.67;;
81314;SDS011;75773;52.534;5.686;2024-01-30T06:02:17;8.32;;;3.17;;
81314;SDS011;75773;52.534;5.686;2024-01-30T06:04:47;7.80;;;2.58;;
81314;SDS011;75773;52.534;5.686;2024-01-30T06:07:16;6.47;;;2.92;;
81314;SDS011;75773;52.534;5.686;2024-01-30T06:09:45;6.47;;;2.47;;
81314;SDS011;75773;52.534;5.686;2024-01-30T06:12:15;5.68;;;2.90;;
81314;SDS011;75773;52.534;5.686;2024-01-30T06:14:47;6.22;;;3.75;;
81314;SDS011;75773;52.534;5.686;2024-01-30T06:17:16;10.18;;;2.63;;
81314;SDS011;75773;52.534;5.686;2024-01-30T06:19:45;5.38;;;3.08;;
81314;SDS011;75773;52.534;5.686;2024-01-30T06:22:15;5.93;;;3.53;;
81314;SDS011;75773;52.534;5.686;2024-01-30T06:24:45;6.18;;;3.15;;
81314;SDS011;75773;52.534;5.686;2024-01-30T06:27:15;6.72;;;2.95;;
81314;SDS011;75773;52.534;5.686;2024-01-30T06:29:47;5.35;;;3.33;;
81314;SDS011;75773;52.534;5.686;2024-01-30T06:32:16;4.88;;;2.58;;
81314;SDS011;75773;52.534;5.686;2024-01-30T06:34:46;7.63;;;3.25;;
81314;SDS011;75773;52.534;5.686;2024-01-30T06:37:15;6.20;;;3.08;;
81314;SDS011;75773;52.534;5.686;2024-01-30T06:39:44;6.25;;;2.95;;
81314;SDS011;75773;52.534;5.686;2024-01-30T06:42:14;8.32;;;3.03;;
81314;SDS011;75773;52.534;5.686;2024-01-30T06:44:43;5.32;;;3.42;;
81314;SDS011;75773;52.534;5.686;2024-01-30T06:47:15;12.13;;;3.90;;
81314;SDS011;75773;52.534;5.686;2024-01-30T06:49:44;6.25;;;2.97;;
81314;SDS011;75773;52.534;5.686;2024-01-30T06:52:14;4.32;;;2.90;;
81314;SDS011;75773;52.534;5.686;2024-01-30T06:54:43;8.20;;;3.85;;
81314;SDS011;75773;52.534;5.686;2024-01-30T06:57:12;5.20;;;3.10;;
81314;SDS011;75773;52.534;5.686;2024-01-30T06:59:42;4.07;;;3.15;;
81314;SDS011;75773;52.534;5.686;2024-01-30T07:02:11;4.95;;;3.38;;
81314;SDS011;75773;52.534;5.686;2024-01-30T07:04:43;7.60;;;4.10;;
81314;SDS011;75773;52.534;5.686;2024-01-30T07:07:13;7.18;;;3.15;;
81314;SDS011;75773;52.534;5.686;2024-01-30T07:09:43;9.00;;;3.35;;
81314;SDS011;75773;52.534;5.686;2024-01-30T07:12:13;7.93;;;3.38;;
81314;SDS011;75773;52.534;5.686;2024-01-30T07:14:42;9.18;;;4.50;;
81314;SDS011;75773;52.534;5.686;2024-01-30T07:17:12;8.18;;;3.53;;
81314;SDS011;75773;52.534;5.686;2024-01-30T07:19:47;5.85;;;3.53;;
81314;SDS011;75773;52.534;5.686;2024-01-30T07:22:16;7.57;;;4.13;;
81314;SDS011;75773;52.534;5.686;2024-01-30T07:24:45;5.35;;;3.35;;
81314;SDS011;75773;52.534;5.686;2024-01-30T07:27:20;6.53;;;3.28;;
81314;SDS011;75773;52.534;5.686;2024-01-30T07:29:50;4.60;;;2.72;;
81314;SDS011;75773;52.534;5.686;2024-01-30T07:32:22;5.20;;;3.10;;
81314;SDS011;75773;52.534;5.686;2024-01-30T07:34:51;7.68;;;3.65;;
81314;SDS011;75773;52.534;5.686;2024-01-30T07:37:20;7.07;;;3.20;;
81314;SDS011;75773;52.534;5.686;2024-01-30T07:39:53;6.43;;;3.05;;
81314;SDS011;75773;52.534;5.686;2024-01-30T07:42:22;12.55;;;3.80;;
81314;SDS011;75773;52.534;5.686;2024-01-30T07:44:52;6.38;;;3.38;;
81314;SDS011;75773;52.534;5.686;2024-01-30T07:47:23;5.50;;;3.53;;
81314;SDS011;75773;52.534;5.686;2024-01-30T07:49:53;4.78;;;2.92;;
81314;SDS011;75773;52.534;5.686;2024-01-30T07:52:22;6.80;;;3.50;;
81314;SDS011;75773;52.534;5.686;2024-01-30T07:54:52;5.70;;;3.15;;
81314;SDS011;75773;52.534;5.686;2024-01-30T07:57:19;5.45;;;3.65;;
81314;SDS011;75773;52.534;5.686;2024-01-30T07:59:48;6.03;;;3.15;;
81314;SDS011;75773;52.534;5.686;2024-01-30T08:02:18;7.10;;;3.90;;
81314;SDS011;75773;52.534;5.686;2024-01-30T08:04:50;5.75;;;3.10;;
81314;SDS011;75773;52.534;5.686;2024-01-30T08:07:20;6.30;;;3.80;;
81314;SDS011;75773;52.534;5.686;2024-01-30T08:09:49;5.57;;;2.38;;
81314;SDS011;75773;52.534;5.686;2024-01-30T08:12:18;5.82;;;3.15;;
81314;SDS011;75773;52.534;5.686;2024-01-30T08:14:48;12.50;;;3.83;;
81314;SDS011;75773;52.534;5.686;2024-01-30T08:17:17;10.45;;;3.47;;
81314;SDS011;75773;52.534;5.686;2024-01-30T08:19:44;6.28;;;3.85;;
81314;SDS011;75773;52.534;5.686;2024-01-30T08:22:16;7.50;;;3.38;;
81314;SDS011;75773;52.534;5.686;2024-01-30T08:24:46;6.53;;;3.03;;
81314;SDS011;75773;52.534;5.686;2024-01-30T08:27:15;6.32;;;3.53;;
81314;SDS011;75773;52.534;5.686;2024-01-30T08:29:44;8.48;;;3.58;;
81314;SDS011;75773;52.534;5.686;2024-01-30T08:32:16;7.18;;;3.33;;
81314;SDS011;75773;52.534;5.686;2024-01-30T08:34:45;11.35;;;3.38;;
81314;SDS011;75773;52.534;5.686;2024-01-30T08:37:18;7.82;;;3.58;;
81314;SDS011;75773;52.534;5.686;2024-01-30T08:39:47;7.97;;;3.40;;
81314;SDS011;75773;52.534;5.686;2024-01-30T08:42:17;6.65;;;3.70;;
81314;SDS011;75773;52.534;5.686;2024-01-30T08:44:48;5.45;;;3.30;;
81314;SDS011;75773;52.534;5.686;2024-01-30T08:47:19;5.43;;;2.80;;
81314;SDS011;75773;52.534;5.686;2024-01-30T08:49:48;5.80;;;3.08;;
81314;SDS011;75773;52.534;5.686;2024-01-30T08:52:20;6.63;;;2.80;;
81314;SDS011;75773;52.534;5.686;2024-01-30T08:54:50;5.25;;;3.08;;
81314;SDS011;75773;52.534;5.686;2024-01-30T08:57:20;6.63;;;3.10;;
81314;SDS011;75773;52.534;5.686;2024-01-30T08:59:49;9.20;;;3.58;;
81314;SDS011;75773;52.534;5.686;2024-01-30T09:02:18;15.25;;;4.20;;
81314;SDS011;75773;52.534;5.686;2024-01-30T09:04:48;7.43;;;3.60;;
81314;SDS011;75773;52.534;5.686;2024-01-30T09:07:20;5.28;;;2.80;;
81314;SDS011;75773;52.534;5.686;2024-01-30T09:09:49;26.42;;;5.00;;
81314;SDS011;75773;52.534;5.686;2024-01-30T09:12:22;5.63;;;3.30;;
81314;SDS011;75773;52.534;5.686;2024-01-30T09:14:51;7.80;;;3.47;;
81314;SDS011;75773;52.534;5.686;2024-01-30T09:17:21;5.65;;;3.58;;
81314;SDS011;75773;52.534;5.686;2024-01-30T09:19:50;13.57;;;3.70;;
81314;SDS011;75773;52.534;5.686;2024-01-30T09:22:22;7.85;;;3.38;;
81314;SDS011;75773;52.534;5.686;2024-01-30T09:24:51;6.57;;;3.13;;
81314;SDS011;75773;52.534;5.686;2024-01-30T09:27:21;9.55;;;3.65;;
81314;SDS011;75773;52.534;5.686;2024-01-30T09:29:50;14.63;;;4.90;;
81314;SDS011;75773;52.534;5.686;2024-01-30T09:32:20;6.60;;;3.00;;
81314;SDS011;75773;52.534;5.686;2024-01-30T09:34:49;7.40;;;3.97;;
81314;SDS011;75773;52.534;5.686;2024-01-30T09:37:22;7.57;;;3.85;;
81314;SDS011;75773;52.534;5.686;2024-01-30T09:39:51;15.35;;;3.70;;
81314;SDS011;75773;52.534;5.686;2024-01-30T09:42:23;6.28;;;3.50;;
81314;SDS011;75773;52.534;5.686;2024-01-30T09:44:57;8.15;;;4.10;;
81314;SDS011;75773;52.534;5.686;2024-01-30T09:47:26;9.02;;;4.00;;
81314;SDS011;75773;52.534;5.686;2024-01-30T09:49:56;6.47;;;3.42;;
81314;SDS011;75773;52.534;5.686;2024-01-30T09:52:31;7.50;;;3.88;;
81314;SDS011;75773;52.534;5.686;2024-01-30T09:55:00;6.45;;;3.05;;
81314;SDS011;75773;52.534;5.686;2024-01-30T09:57:30;6.25;;;3.40;;
81314;SDS011;75773;52.534;5.686;2024-01-30T10:00:00;5.70;;;3.50;;
81314;SDS011;75773;52.534;5.686;2024-01-30T10:02:38;10.18;;;4.10;;
81314;SDS011;75773;52.534;5.686;2024-01-30T10:05:08;6.57;;;3.72;;
81314;SDS011;75773;52.534;5.686;2024-01-30T10:07:49;7.18;;;4.00;;
81314;SDS011;75773;52.534;5.686;2024-01-30T10:10:21;10.82;;;3.72;;
81314;SDS011;75773;52.534;5.686;2024-01-30T10:12:51;13.60;;;3.65;;
81314;SDS011;75773;52.534;5.686;2024-01-30T10:15:20;5.18;;;3.58;;
81314;SDS011;75773;52.534;5.686;2024-01-30T10:17:49;12.02;;;4.78;;
81314;SDS011;75773;52.534;5.686;2024-01-30T10:20:19;6.10;;;3.60;;
81314;SDS011;75773;52.534;5.686;2024-01-30T10:22:51;10.00;;;3.75;;
81314;SDS011;75773;52.534;5.686;2024-01-30T10:25:21;10.52;;;4.30;;
81314;SDS011;75773;52.534;5.686;2024-01-30T10:27:54;9.82;;;4.10;;
81314;SDS011;75773;52.534;5.686;2024-01-30T10:30:24;9.40;;;3.75;;
81314;SDS011;75773;52.534;5.686;2024-01-30T10:32:53;12.07;;;3.90;;
81314;SDS011;75773;52.534;5.686;2024-01-30T10:35:23;6.53;;;4.03;;
81314;SDS011;75773;52.534;5.686;2024-01-30T10:37:55;7.43;;;3.10;;
81314;SDS011;75773;52.534;5.686;2024-01-30T10:40:28;8.70;;;3.53;;
81314;SDS011;75773;52.534;5.686;2024-01-30T10:42:58;4.60;;;3.25;;
81314;SDS011;75773;52.534;5.686;2024-01-30T10:45:30;5.90;;;3.65;;
81314;SDS011;75773;52.534;5.686;2024-01-30T10:48:00;9.95;;;3.85;;
81314;SDS011;75773;52.534;5.686;2024-01-30T10:50:32;6.32;;;3.88;;
81314;SDS011;75773;52.534;5.686;2024-01-30T10:53:05;6.35;;;4.00;;
81314;SDS011;75773;52.534;5.686;2024-01-30T10:55:37;7.40;;;4.32;;
81314;SDS011;75773;52.534;5.686;2024-01-30T10:58:08;6.38;;;4.03;;
81314;SDS011;75773;52.534;5.686;2024-01-30T11:00:40;11.95;;;3.78;;
81314;SDS011;75773;52.534;5.686;2024-01-30T11:03:10;8.43;;;3.53;;
81314;SDS011;75773;52.534;5.686;2024-01-30T11:05:40;6.50;;;2.80;;
81314;SDS011;75773;52.534;5.686;2024-01-30T11:08:13;7.35;;;3.30;;
81314;SDS011;75773;52.534;5.686;2024-01-30T11:10:46;10.85;;;2.95;;
81314;SDS011;75773;52.534;5.686;2024-01-30T11:13:15;7.90;;;3.33;;
81314;SDS011;75773;52.534;5.686;2024-01-30T11:15:47;5.70;;;3.53;;
81314;SDS011;75773;52.534;5.686;2024-01-30T11:18:26;6.22;;;3.15;;
81314;SDS011;75773;52.534;5.686;2024-01-30T11:20:57;2.88;;;2.10;;
81314;SDS011;75773;52.534;5.686;2024-01-30T11:23:30;3.85;;;2.28;;
81314;SDS011;75773;52.534;5.686;2024-01-30T11:26:02;7.15;;;2.00;;
81314;SDS011;75773;52.534;5.686;2024-01-30T11:28:33;6.88;;;1.65;;
81314;SDS011;75773;52.534;5.686;2024-01-30T11:31:03;2.72;;;1.23;;
81314;SDS011;75773;52.534;5.686;2024-01-30T11:33:33;1.48;;;0.98;;
81314;SDS011;75773;52.534;5.686;2024-01-30T11:36:06;4.65;;;1.30;;
81314;SDS011;75773;52.534;5.686;2024-01-30T11:38:39;2.00;;;0.82;;
81314;SDS011;75773;52.534;5.686;2024-01-30T11:41:11;3.35;;;1.33;;
81314;SDS011;75773;52.534;5.686;2024-01-30T11:43:44;8.65;;;2.05;;
81314;SDS011;75773;52.534;5.686;2024-01-30T11:46:20;5.22;;;1.30;;
81314;SDS011;75773;52.534;5.686;2024-01-30T11:48:50;2.88;;;1.35;;
81314;SDS011;75773;52.534;5.686;2024-01-30T11:51:19;3.08;;;1.13;;
81314;SDS011;75773;52.534;5.686;2024-01-30T11:53:52;1.55;;;1.00;;
81314;SDS011;75773;52.534;5.686;2024-01-30T11:56:23;1.67;;;1.15;;
81314;SDS011;75773;52.534;5.686;2024-01-30T11:58:56;1.90;;;0.80;;
81314;SDS011;75773;52.534;5.686;2024-01-30T12:01:26;1.08;;;0.88;;
81314;SDS011;75773;52.534;5.686;2024-01-30T12:03:55;1.45;;;0.88;;
81314;SDS011;75773;52.534;5.686;2024-01-30T12:06:25;1.10;;;0.65;;
81314;SDS011;75773;52.534;5.686;2024-01-30T12:09:01;2.22;;;0.65;;
81314;SDS011;75773;52.534;5.686;2024-01-30T12:14:07;1.48;;;0.70;;
81314;SDS011;75773;52.534;5.686;2024-01-30T12:16:37;3.05;;;0.82;;
81314;SDS011;75773;52.534;5.686;2024-01-30T12:19:07;1.65;;;0.30;;
81314;SDS011;75773;52.534;5.686;2024-01-30T12:21:38;3.10;;;0.40;;
81314;SDS011;75773;52.534;5.686;2024-01-30T12:24:12;3.22;;;0.77;;
81314;SDS011;75773;52.534;5.686;2024-01-30T12:26:45;0.98;;;0.70;;
81314;SDS011;75773;52.534;5.686;2024-01-30T12:29:15;4.70;;;0.90;;
81314;SDS011;75773;52.534;5.686;2024-01-30T12:31:44;2.17;;;0.90;;
81314;SDS011;75773;52.534;5.686;2024-01-30T12:34:15;5.22;;;0.60;;
81314;SDS011;75773;52.534;5.686;2024-01-30T12:36:48;0.57;;;0.50;;
81314;SDS011;75773;52.534;5.686;2024-01-30T12:39:21;2.05;;;0.50;;
81314;SDS011;75773;52.534;5.686;2024-01-30T12:41:51;0.98;;;0.50;;
81314;SDS011;75773;52.534;5.686;2024-01-30T12:44:21;3.75;;;0.77;;
81314;SDS011;75773;52.534;5.686;2024-01-30T12:46:54;1.67;;;0.82;;
81314;SDS011;75773;52.534;5.686;2024-01-30T12:49:24;5.53;;;0.90;;
81314;SDS011;75773;52.534;5.686;2024-01-30T12:51:56;1.23;;;0.77;;
81314;SDS011;75773;52.534;5.686;2024-01-30T12:54:31;0.63;;;0.55;;
81314;SDS011;75773;52.534;5.686;2024-01-30T12:57:03;2.80;;;0.70;;
81314;SDS011;75773;52.534;5.686;2024-01-30T12:59:36;6.47;;;0.98;;
81314;SDS011;75773;52.534;5.686;2024-01-30T13:02:12;2.15;;;0.90;;
81314;SDS011;75773;52.534;5.686;2024-01-30T13:04:42;3.17;;;1.48;;
81314;SDS011;75773;52.534;5.686;2024-01-30T13:07:12;7.20;;;0.93;;
81314;SDS011;75773;52.534;5.686;2024-01-30T13:09:44;1.17;;;0.82;;
81314;SDS011;75773;52.534;5.686;2024-01-30T13:12:13;1.17;;;0.85;;
81314;SDS011;75773;52.534;5.686;2024-01-30T13:14:43;3.83;;;0.60;;
81314;SDS011;75773;52.534;5.686;2024-01-30T13:17:13;8.20;;;0.85;;
81314;SDS011;75773;52.534;5.686;2024-01-30T13:19:46;0.82;;;0.60;;
81314;SDS011;75773;52.534;5.686;2024-01-30T13:22:20;0.82;;;0.30;;
81314;SDS011;75773;52.534;5.686;2024-01-30T13:24:52;2.35;;;0.70;;
81314;SDS011;75773;52.534;5.686;2024-01-30T13:27:25;7.20;;;1.33;;
81314;SDS011;75773;52.534;5.686;2024-01-30T13:29:55;1.00;;;0.25;;
81314;SDS011;75773;52.534;5.686;2024-01-30T13:32:24;0.45;;;0.38;;
81314;SDS011;75773;52.534;5.686;2024-01-30T13:34:54;4.05;;;0.70;;
81314;SDS011;75773;52.534;5.686;2024-01-30T13:37:23;2.55;;;0.55;;
81314;SDS011;75773;52.534;5.686;2024-01-30T13:39:56;2.80;;;0.70;;
81314;SDS011;75773;52.534;5.686;2024-01-30T13:42:25;2.65;;;0.75;;
81314;SDS011;75773;52.534;5.686;2024-01-30T13:44:55;2.45;;;0.65;;
81314;SDS011;75773;52.534;5.686;2024-01-30T13:47:26;2.60;;;0.60;;
81314;SDS011;75773;52.534;5.686;2024-01-30T13:49:56;2.47;;;1.30;;
81314;SDS011;75773;52.534;5.686;2024-01-30T13:52:25;1.15;;;0.65;;
81314;SDS011;75773;52.534;5.686;2024-01-30T13:54:58;1.17;;;0.88;;
81314;SDS011;75773;52.534;5.686;2024-01-30T13:57:27;3.53;;;0.60;;
81314;SDS011;75773;52.534;5.686;2024-01-30T14:00:00;0.73;;;0.45;;
81314;SDS011;75773;52.534;5.686;2024-01-30T14:02:41;3.03;;;0.85;;
81314;SDS011;75773;52.534;5.686;2024-01-30T14:05:11;2.75;;;0.70;;
81314;SDS011;75773;52.534;5.686;2024-01-30T14:07:41;1.67;;;1.05;;
81314;SDS011;75773;52.534;5.686;2024-01-30T14:10:15;3.97;;;0.93;;
81314;SDS011;75773;52.534;5.686;2024-01-30T14:12:44;2.63;;;0.75;;
81314;SDS011;75773;52.534;5.686;2024-01-30T14:15:14;2.53;;;1.30;;
81314;SDS011;75773;52.534;5.686;2024-01-30T14:17:44;6.57;;;1.15;;
81314;SDS011;75773;52.534;5.686;2024-01-30T14:20:15;0.75;;;0.70;;
81314;SDS011;75773;52.534;5.686;2024-01-30T14:22:45;1.25;;;0.70;;
81314;SDS011;75773;52.534;5.686;2024-01-30T14:25:17;1.17;;;0.60;;
81314;SDS011;75773;52.534;5.686;2024-01-30T14:27:46;0.65;;;0.60;;
81314;SDS011;75773;52.534;5.686;2024-01-30T14:30:15;1.77;;;1.67;;
81314;SDS011;75773;52.534;5.686;2024-01-30T14:32:45;1.15;;;1.05;;
81314;SDS011;75773;52.534;5.686;2024-01-30T14:35:15;1.77;;;0.75;;
81314;SDS011;75773;52.534;5.686;2024-01-30T14:37:45;3.47;;;0.88;;
81314;SDS011;75773;52.534;5.686;2024-01-30T14:40:17;1.17;;;0.80;;
81314;SDS011;75773;52.534;5.686;2024-01-30T14:42:47;2.15;;;1.00;;
81314;SDS011;75773;52.534;5.686;2024-01-30T14:45:16;1.15;;;0.75;;
81314;SDS011;75773;52.534;5.686;2024-01-30T14:47:47;2.85;;;0.77;;
81314;SDS011;75773;52.534;5.686;2024-01-30T14:50:18;1.83;;;0.98;;
81314;SDS011;75773;52.534;5.686;2024-01-30T14:52:48;1.05;;;0.95;;
81314;SDS011;75773;52.534;5.686;2024-01-30T14:55:20;3.35;;;0.82;;
81314;SDS011;75773;52.534;5.686;2024-01-30T14:57:49;4.28;;;0.93;;
81314;SDS011;75773;52.534;5.686;2024-01-30T15:00:20;1.73;;;1.00;;
81314;SDS011;75773;52.534;5.686;2024-01-30T15:02:49;2.50;;;1.00;;
81314;SDS011;75773;52.534;5.686;2024-01-30T15:05:19;2.67;;;1.13;;
81314;SDS011;75773;52.534;5.686;2024-01-30T15:07:48;1.02;;;0.90;;